Morley, United Kingdom
Current Conditions -  °F | °C
As of 4:20 PM on Monday 22 Dec 2014 (Local Time) from EGNM Reporting Station
Light Rain Light Rain  
Wind Chill: 50°   Ceiling: 1400
Heat Index: 50°   Visibility: 2.5mi
Dew Point: 48°   Wind: 32mph
Humidity: 94%   Direction: 260°W
Pressure: 29.71"   Gusts: 46mph
Location:  53.74°N, 1.6°W
Report Text: EGNM 221620Z 26028G40KT 4000 -RADZ FEW009 BKN014 10/09 Q1006
Loading
Personal Weather Stations






























Interactive Weather Map New forecast layout! Learn more

10-Day Weather Forecast

Advertisements
Track Severe Weather on mobile